createdAt,value
2018-07-14T00:03:56.224Z,98278.00
2018-07-14T00:07:58.494Z,98279.00
2018-07-14T00:12:00.752Z,98271.00
2018-07-14T00:16:02.995Z,98288.00
2018-07-14T00:20:05.909Z,98279.00
2018-07-14T00:24:08.162Z,98269.00
2018-07-14T00:28:10.447Z,98268.00
2018-07-14T00:32:12.712Z,98279.00
2018-07-14T00:36:14.921Z,98266.00
2018-07-14T00:40:17.242Z,98273.00
2018-07-14T00:44:19.523Z,98269.00
2018-07-14T00:48:21.863Z,98272.00
2018-07-14T00:52:24.087Z,98270.00
2018-07-14T00:56:26.393Z,98270.00
2018-07-14T01:00:28.681Z,98265.00
2018-07-14T01:04:31.067Z,98265.00
2018-07-14T01:08:33.387Z,98270.00
2018-07-14T01:12:35.627Z,98267.00
2018-07-14T01:16:37.931Z,98272.00
2018-07-14T01:20:40.135Z,98278.00
2018-07-14T01:24:42.400Z,98268.00
2018-07-14T01:28:44.582Z,98271.00
2018-07-14T01:32:46.826Z,98269.00
2018-07-14T01:36:49.093Z,98264.00
2018-07-14T01:40:51.288Z,98268.00
2018-07-14T01:44:53.617Z,98270.00
2018-07-14T01:48:55.809Z,98265.00
2018-07-14T01:52:58.380Z,98263.00
2018-07-14T01:57:00.580Z,98259.00
2018-07-14T02:01:02.850Z,98261.00
2018-07-14T02:05:04.992Z,98263.00
2018-07-14T02:09:07.197Z,98257.00
2018-07-14T02:13:09.335Z,98260.00
2018-07-14T02:17:11.467Z,98258.00
2018-07-14T02:21:13.670Z,98264.00
2018-07-14T02:25:15.817Z,98260.00
2018-07-14T02:29:18.033Z,98259.00
2018-07-14T02:33:20.228Z,98262.00
2018-07-14T02:37:22.375Z,98269.00
2018-07-14T02:41:25.158Z,98266.00
2018-07-14T02:45:27.339Z,98269.00
2018-07-14T02:49:30.697Z,98270.00
2018-07-14T02:53:32.851Z,98269.00
2018-07-14T02:57:35.046Z,98258.00
2018-07-14T03:01:37.420Z,98261.00
2018-07-14T03:05:39.589Z,98267.00
2018-07-14T03:09:41.729Z,98270.00
2018-07-14T03:13:44.170Z,98271.00
2018-07-14T03:17:46.351Z,98272.00
2018-07-14T03:21:48.492Z,98269.00
2018-07-14T03:25:50.650Z,98255.00
2018-07-14T03:29:52.874Z,98260.00
2018-07-14T03:33:55.067Z,98251.00
2018-07-14T03:37:57.279Z,98255.00
2018-07-14T03:41:59.819Z,98262.00
2018-07-14T03:46:02.401Z,98258.00
2018-07-14T03:50:04.948Z,98251.00
2018-07-14T03:54:07.165Z,98256.00
2018-07-14T03:58:09.395Z,98260.00
2018-07-14T04:02:11.726Z,98256.00
2018-07-14T04:06:13.939Z,98253.00
2018-07-14T04:10:16.098Z,98253.00
2018-07-14T04:14:18.228Z,98261.00
2018-07-14T04:18:20.383Z,98267.00
2018-07-14T04:22:22.577Z,98264.00
2018-07-14T04:26:24.842Z,98263.00
2018-07-14T04:30:27.481Z,98210.00
2018-07-14T04:34:30.230Z,98256.00
2018-07-14T04:38:32.626Z,98264.00
2018-07-14T04:42:34.875Z,98266.00
2018-07-14T04:46:37.166Z,98265.00
2018-07-14T04:50:39.361Z,98274.00
2018-07-14T04:54:41.610Z,98285.00
2018-07-14T04:58:44.003Z,98274.00
2018-07-14T05:02:46.967Z,98270.00
2018-07-14T05:06:49.142Z,98271.00
2018-07-14T05:10:51.369Z,98279.00
2018-07-14T05:14:53.645Z,98284.00
2018-07-14T05:18:55.952Z,98286.00
2018-07-14T05:22:58.156Z,98275.00
2018-07-14T05:27:00.416Z,98274.00
2018-07-14T05:31:02.636Z,98275.00
2018-07-14T05:35:05.140Z,98280.00
2018-07-14T05:39:07.404Z,98294.00
2018-07-14T05:43:09.664Z,98293.00
2018-07-14T05:47:11.815Z,98293.00
2018-07-14T05:51:13.988Z,98289.00
2018-07-14T05:55:16.143Z,98291.00
2018-07-14T05:59:18.301Z,98283.00
2018-07-14T06:03:20.511Z,98290.00
2018-07-14T06:07:22.675Z,98289.00
2018-07-14T06:11:24.825Z,98297.00
2018-07-14T06:15:27.032Z,98289.00
2018-07-14T06:19:29.258Z,98287.00
2018-07-14T06:23:31.369Z,98291.00
2018-07-14T06:27:33.944Z,98294.00
2018-07-14T06:31:36.118Z,98300.00
2018-07-14T06:35:38.276Z,98295.00
2018-07-14T06:39:40.451Z,98299.00
2018-07-14T06:43:42.699Z,98294.00
2018-07-14T06:47:44.858Z,98302.00
2018-07-14T06:51:47.040Z,98305.00
2018-07-14T06:55:49.495Z,98309.00
2018-07-14T06:59:51.640Z,98314.00
2018-07-14T07:03:54.292Z,98309.00
2018-07-14T07:07:56.534Z,98315.00
2018-07-14T07:11:58.752Z,98315.00
2018-07-14T07:16:00.882Z,98318.00
2018-07-14T07:20:03.219Z,98317.00
2018-07-14T07:24:05.534Z,98319.00
2018-07-14T07:28:07.732Z,98317.00
2018-07-14T07:32:09.911Z,98320.00
2018-07-14T07:36:12.130Z,98323.00
2018-07-14T07:40:14.272Z,98322.00
2018-07-14T07:44:16.430Z,98319.00
2018-07-14T07:48:18.603Z,98314.00
2018-07-14T07:52:20.740Z,98319.00
2018-07-14T07:56:22.900Z,98316.00
2018-07-14T08:00:25.044Z,98322.00
2018-07-14T08:04:27.214Z,98321.00
2018-07-14T08:08:29.490Z,98328.00
2018-07-14T08:12:31.663Z,98325.00
2018-07-14T08:16:33.811Z,98320.00
2018-07-14T08:20:35.968Z,98319.00
2018-07-14T08:24:38.208Z,98317.00
2018-07-14T08:28:40.359Z,98325.00
2018-07-14T08:32:42.551Z,98310.00
2018-07-14T08:36:44.783Z,98311.00
2018-07-14T08:40:46.956Z,98314.00
2018-07-14T08:44:49.120Z,98311.00
2018-07-14T08:48:51.254Z,98307.00
2018-07-14T08:52:53.443Z,98313.00
2018-07-14T08:56:55.671Z,98318.00
2018-07-14T09:00:59.118Z,98316.00
2018-07-14T09:05:01.280Z,98308.00
2018-07-14T09:09:04.172Z,98309.00
2018-07-14T09:13:06.348Z,98309.00
2018-07-14T09:17:08.499Z,98306.00
2018-07-14T09:21:10.799Z,98300.00
2018-07-14T09:25:13.052Z,98300.00
2018-07-14T09:29:15.529Z,98288.00
2018-07-14T09:33:17.839Z,98294.00
2018-07-14T09:37:20.111Z,98281.00
2018-07-14T09:41:22.233Z,98286.00
2018-07-14T09:45:24.461Z,98290.00
2018-07-14T09:49:27.529Z,98295.00
2018-07-14T09:53:29.688Z,98289.00
2018-07-14T09:57:31.843Z,98283.00
2018-07-14T10:01:34.005Z,98269.00
2018-07-14T10:05:36.201Z,98274.00
2018-07-14T10:09:38.367Z,98267.00
2018-07-14T10:13:40.528Z,98263.00
2018-07-14T10:17:42.762Z,98266.00
2018-07-14T10:21:44.887Z,98261.00
2018-07-14T10:25:47.256Z,98262.00
2018-07-14T10:29:49.245Z,98262.00
2018-07-14T10:33:51.494Z,98267.00
2018-07-14T10:37:53.676Z,98269.00
2018-07-14T10:41:55.865Z,98261.00
2018-07-14T10:45:58.020Z,98253.00
2018-07-14T10:50:00.177Z,98261.00
2018-07-14T10:54:02.340Z,98244.00
2018-07-14T10:58:04.579Z,98246.00
2018-07-14T11:02:06.857Z,98246.00
2018-07-14T11:06:09.391Z,98239.00
2018-07-14T11:10:11.571Z,98226.00
2018-07-14T11:14:13.764Z,98231.00
2018-07-14T11:18:16.011Z,98226.00
2018-07-14T11:22:18.231Z,98218.00
2018-07-14T11:26:20.577Z,98208.00
2018-07-14T11:30:22.842Z,98209.00
2018-07-14T11:34:25.019Z,98210.00
2018-07-14T11:38:27.162Z,98211.00
2018-07-14T11:42:29.499Z,98206.00
2018-07-14T11:46:31.655Z,98193.00
2018-07-14T11:50:33.916Z,98191.00
2018-07-14T11:54:36.110Z,98194.00
2018-07-14T11:58:38.314Z,98187.00
2018-07-14T12:02:40.618Z,98189.00
2018-07-14T12:06:43.160Z,98179.00
2018-07-14T12:10:45.437Z,98180.00
2018-07-14T12:14:53.161Z,98172.00
2018-07-14T12:18:57.704Z,98173.00
2018-07-14T12:23:01.071Z,98173.00
2018-07-14T12:27:03.894Z,98161.00
2018-07-14T12:31:07.651Z,98165.00
2018-07-14T12:35:12.159Z,98162.00
2018-07-14T12:39:15.846Z,98155.00
2018-07-14T12:43:18.291Z,98153.00
2018-07-14T12:47:22.064Z,98149.00
2018-07-14T12:51:24.327Z,98151.00
2018-07-14T12:55:28.851Z,98150.00
2018-07-14T12:59:32.826Z,98147.00
2018-07-14T13:03:35.574Z,98144.00
2018-07-14T13:07:37.953Z,98144.00
2018-07-14T13:11:43.282Z,98139.00
2018-07-14T13:15:46.145Z,98128.00
2018-07-14T13:19:48.615Z,98125.00
2018-07-14T13:23:51.194Z,98124.00
2018-07-14T13:27:55.774Z,98121.00
2018-07-14T13:31:58.447Z,98114.00
2018-07-14T13:36:01.936Z,98122.00
2018-07-14T13:40:05.889Z,98114.00
2018-07-14T13:44:08.321Z,98117.00
2018-07-14T13:48:10.658Z,98111.00
2018-07-14T13:52:14.275Z,98113.00
2018-07-14T13:56:16.460Z,98106.00
2018-07-14T14:00:18.692Z,98098.00
2018-07-14T14:04:20.872Z,98093.00
2018-07-14T14:08:23.045Z,98095.00
2018-07-14T14:12:25.249Z,98091.00
2018-07-14T14:16:27.764Z,98089.00
2018-07-14T14:20:30.238Z,98092.00
2018-07-14T14:24:32.459Z,98085.00
2018-07-14T14:28:34.755Z,98091.00
2018-07-14T14:32:37.002Z,98088.00
2018-07-14T14:36:39.231Z,98079.00
2018-07-14T14:40:41.421Z,98081.00
2018-07-14T14:44:43.598Z,98074.00
2018-07-14T14:48:45.875Z,98078.00
2018-07-14T14:52:48.031Z,98076.00
2018-07-14T14:56:50.238Z,98070.00
2018-07-14T15:00:52.483Z,98070.00
2018-07-14T15:04:54.640Z,98073.00
2018-07-14T15:08:56.819Z,98067.00
2018-07-14T15:12:59.671Z,98056.00
2018-07-14T15:17:01.988Z,98063.00
2018-07-14T15:21:04.258Z,98060.00
2018-07-14T15:25:07.283Z,98054.00
2018-07-14T15:29:09.506Z,98050.00
2018-07-14T15:33:11.819Z,98045.00
2018-07-14T15:37:13.898Z,98045.00
2018-07-14T15:41:16.671Z,98048.00
2018-07-14T15:45:18.872Z,98051.00
2018-07-14T15:49:21.256Z,98040.00
2018-07-14T15:53:23.445Z,98038.00
2018-07-14T15:57:25.612Z,98034.00
2018-07-14T16:01:27.795Z,98042.00
2018-07-14T16:05:30.698Z,98039.00
2018-07-14T16:09:32.863Z,98041.00
2018-07-14T16:13:35.068Z,98042.00
2018-07-14T16:17:37.324Z,98046.00
2018-07-14T16:21:39.543Z,98039.00
2018-07-14T16:25:41.770Z,98035.00
2018-07-14T16:29:43.995Z,98033.00
2018-07-14T16:33:46.196Z,98029.00
2018-07-14T16:37:48.472Z,98029.00
2018-07-14T16:41:50.719Z,98025.00
2018-07-14T16:45:52.916Z,98013.00
2018-07-14T16:49:55.484Z,98010.00
2018-07-14T16:53:57.630Z,98013.00
2018-07-14T16:58:01.698Z,98005.00
2018-07-14T17:02:04.280Z,97999.00
2018-07-14T17:06:07.903Z,97994.00
2018-07-14T17:10:10.155Z,97999.00
2018-07-14T17:14:12.443Z,98000.00
2018-07-14T17:18:14.498Z,97997.00
2018-07-14T17:22:16.768Z,98001.00
2018-07-14T17:26:19.092Z,97992.00
2018-07-14T17:30:21.347Z,97994.00
2018-07-14T17:34:23.517Z,97991.00
2018-07-14T17:38:25.776Z,97997.00
2018-07-14T17:42:27.963Z,97988.00
2018-07-14T17:46:30.115Z,97998.00
2018-07-14T17:50:32.358Z,97992.00
2018-07-14T17:54:34.765Z,97994.00
2018-07-14T17:58:36.945Z,98000.00
2018-07-14T18:02:39.148Z,98000.00
2018-07-14T18:06:41.317Z,98002.00
2018-07-14T18:10:43.510Z,98004.00
2018-07-14T18:14:45.701Z,98005.00
2018-07-14T18:18:47.815Z,98002.00
2018-07-14T18:22:50.062Z,98002.00
2018-07-14T18:26:52.239Z,97996.00
2018-07-14T18:30:54.455Z,97992.00
2018-07-14T18:34:56.623Z,97995.00
2018-07-14T18:38:58.830Z,97994.00
2018-07-14T18:43:01.044Z,97991.00
2018-07-14T18:47:03.280Z,97996.00
2018-07-14T18:51:05.498Z,97992.00
2018-07-14T18:55:07.717Z,97995.00
2018-07-14T18:59:09.910Z,98001.00
2018-07-14T19:03:12.166Z,98000.00
2018-07-14T19:07:14.378Z,98005.00
2018-07-14T19:11:16.577Z,98016.00
2018-07-14T19:15:18.827Z,98004.00
2018-07-14T19:19:21.027Z,98008.00
2018-07-14T19:23:23.229Z,98016.00
2018-07-14T19:27:25.395Z,98028.00
2018-07-14T19:31:27.959Z,98028.00
2018-07-14T19:35:30.265Z,98036.00
2018-07-14T19:39:32.875Z,98037.00
2018-07-14T19:43:35.183Z,98039.00
2018-07-14T19:47:37.368Z,98052.00
2018-07-14T19:51:39.598Z,98050.00
2018-07-14T19:55:41.871Z,98070.00
2018-07-14T19:59:44.238Z,98062.00
2018-07-14T20:03:46.403Z,98075.00
2018-07-14T20:07:49.108Z,98073.00
2018-07-14T20:11:51.257Z,98076.00
2018-07-14T20:15:53.739Z,98067.00
2018-07-14T20:19:55.982Z,98077.00
2018-07-14T20:23:58.366Z,98074.00
2018-07-14T20:28:00.599Z,98070.00
2018-07-14T20:32:02.816Z,98084.00
2018-07-14T20:36:04.985Z,98084.00
2018-07-14T20:40:07.214Z,98088.00
2018-07-14T20:44:09.387Z,98099.00
2018-07-14T20:48:11.594Z,98091.00
2018-07-14T20:52:13.819Z,98095.00
2018-07-14T20:56:16.007Z,98094.00
2018-07-14T21:00:18.243Z,98098.00
2018-07-14T21:04:20.490Z,98095.00
2018-07-14T21:08:22.703Z,98098.00
2018-07-14T21:12:25.387Z,98093.00
2018-07-14T21:16:27.545Z,98100.00
2018-07-14T21:20:29.695Z,98100.00
2018-07-14T21:24:31.878Z,98098.00
2018-07-14T21:28:34.128Z,98094.00
2018-07-14T21:32:36.317Z,98104.00
2018-07-14T21:36:38.508Z,98103.00
2018-07-14T21:40:40.730Z,98108.00
2018-07-14T21:44:42.925Z,98106.00
2018-07-14T21:48:45.336Z,98108.00
2018-07-14T21:52:47.811Z,98109.00
2018-07-14T21:56:50.189Z,98119.00
2018-07-14T22:01:03.353Z,98110.00
2018-07-14T22:05:05.594Z,98110.00
2018-07-14T22:09:07.793Z,98106.00
2018-07-14T22:13:10.085Z,98106.00
2018-07-14T22:17:12.403Z,98110.00
2018-07-14T22:21:14.599Z,98107.00
2018-07-14T22:25:16.777Z,98107.00
2018-07-14T22:29:19.088Z,98105.00
2018-07-14T22:33:21.233Z,98107.00
2018-07-14T22:37:23.379Z,98110.00
2018-07-14T22:41:25.682Z,98108.00
2018-07-14T22:45:27.920Z,98108.00
2018-07-14T22:49:30.106Z,98105.00
2018-07-14T22:53:32.271Z,98106.00
2018-07-14T22:57:34.411Z,98104.00
2018-07-14T23:01:36.709Z,98100.00
2018-07-14T23:05:38.889Z,98097.00
2018-07-14T23:09:41.116Z,98108.00
2018-07-14T23:13:43.322Z,98100.00
2018-07-14T23:17:45.499Z,98110.00
2018-07-14T23:21:47.722Z,98100.00
2018-07-14T23:25:49.879Z,98112.00
2018-07-14T23:29:52.076Z,98109.00
2018-07-14T23:33:54.258Z,98113.00
2018-07-14T23:37:56.525Z,98105.00
2018-07-14T23:41:58.707Z,98102.00
2018-07-14T23:46:01.482Z,98096.00
2018-07-14T23:50:03.781Z,98095.00
2018-07-14T23:54:05.984Z,98096.00
2018-07-14T23:58:08.146Z,98095.00
